Ambrose, North Dakota
Current Conditions -  °F | °C
As of 10:55 AM on Monday 22 Dec 2014 (Local Time) from KD50 Reporting Station
Unknown Precip Unknown Precip  
Wind Chill: -9°   Ceiling: 200
Heat Index: -3°   Visibility: 0.75mi
Dew Point: -3°   Wind: 14mph
Humidity: 100%   Direction: 330°NNW
Pressure: 29.6"   Gusts: NA
Location:  48.95°N, 103.48°W
Report Text: KD50 221655Z AUTO 33012KT 3/4SM UP OVC002 M03/M03 A2960 RMK AO2
Loading
Personal Weather Stations






























Interactive Weather Map New forecast layout! Learn more

10-Day Weather Forecast

Advertisements
Track Severe Weather on mobile